UNEE/KEJ METAR and TAF weather

Enter ICAO airport designator
Station Type Date Time Source
UNEE METAR 2019/09/21 21:00 UTC NOAA

UNEE 212100Z 14003MPS CAVOK 05/02 Q1023 R23/CLRD60 NOSIG RMK QFE744


Station Type Date Time Source
UNEE Decoded METAR 2019/09/21 21:00 UTC NOAA

Kemerovo, Russia (UNEE) 55-19-48N 086-04-48E
Sep 21, 2019 - 05:00 PM EDT / 2019.09.21 2100 UTC
Wind: from the SE (140 degrees) at 7 MPH (6 KT):0
Visibility: greater than 7 mile(s):0
Temperature: 41 F (5 C)
Dew Point: 35 F (2 C)
Relative Humidity: 80%
Pressure (altimeter): 30.21 in. Hg (1023 hPa)
ob: UNEE 212100Z 14003MPS CAVOK 05/02 Q1023 R23/CLRD60 NOSIG RMK QFE744
cycle: 21

Station Type Date Time Source
UNEE TAF 2019/09/21 21:21 UTC NOAA

TAF UNEE 212000Z 2121/2221 15003G08MPS CAVOK
TEMPO 2121/2202 3100 BR SCT011
TEMPO 2203/2212 11006G13MPS

Example: see airport list